sensor_id;sensor_type;location;lat;lon;timestamp;P1;durP1;ratioP1;P2;durP2;ratioP2
28724;SDS011;43472;48.980;9.646;2022-12-20T00:02:19;24.50;;;12.27;;
28724;SDS011;43472;48.980;9.646;2022-12-20T00:07:21;24.48;;;11.82;;
28724;SDS011;43472;48.980;9.646;2022-12-20T00:12:23;22.17;;;11.95;;
28724;SDS011;43472;48.980;9.646;2022-12-20T00:17:25;26.60;;;11.85;;
28724;SDS011;43472;48.980;9.646;2022-12-20T00:22:26;22.67;;;12.07;;
28724;SDS011;43472;48.980;9.646;2022-12-20T00:27:28;20.65;;;11.05;;
28724;SDS011;43472;48.980;9.646;2022-12-20T00:32:30;23.75;;;12.52;;
28724;SDS011;43472;48.980;9.646;2022-12-20T00:37:32;21.45;;;11.85;;
28724;SDS011;43472;48.980;9.646;2022-12-20T00:42:34;19.45;;;10.70;;
28724;SDS011;43472;48.980;9.646;2022-12-20T00:47:35;21.48;;;10.77;;
28724;SDS011;43472;48.980;9.646;2022-12-20T00:52:37;21.98;;;12.00;;
28724;SDS011;43472;48.980;9.646;2022-12-20T00:57:39;22.40;;;10.93;;
28724;SDS011;43472;48.980;9.646;2022-12-20T01:02:40;23.30;;;13.00;;
28724;SDS011;43472;48.980;9.646;2022-12-20T01:07:42;20.27;;;10.85;;
28724;SDS011;43472;48.980;9.646;2022-12-20T01:12:44;19.05;;;10.05;;
28724;SDS011;43472;48.980;9.646;2022-12-20T01:17:46;22.77;;;12.15;;
28724;SDS011;43472;48.980;9.646;2022-12-20T01:22:48;26.15;;;15.85;;
28724;SDS011;43472;48.980;9.646;2022-12-20T01:27:51;19.85;;;11.60;;
28724;SDS011;43472;48.980;9.646;2022-12-20T01:32:53;25.00;;;13.35;;
28724;SDS011;43472;48.980;9.646;2022-12-20T01:37:54;24.10;;;11.15;;
28724;SDS011;43472;48.980;9.646;2022-12-20T01:42:56;19.75;;;11.70;;
28724;SDS011;43472;48.980;9.646;2022-12-20T01:47:58;18.40;;;9.77;;
28724;SDS011;43472;48.980;9.646;2022-12-20T01:53:00;17.10;;;9.45;;
28724;SDS011;43472;48.980;9.646;2022-12-20T01:58:05;19.48;;;10.13;;
28724;SDS011;43472;48.980;9.646;2022-12-20T02:03:12;22.55;;;10.75;;
28724;SDS011;43472;48.980;9.646;2022-12-20T02:08:16;18.73;;;9.93;;
28724;SDS011;43472;48.980;9.646;2022-12-20T02:13:24;18.58;;;9.02;;
28724;SDS011;43472;48.980;9.646;2022-12-20T02:18:39;26.83;;;10.77;;
28724;SDS011;43472;48.980;9.646;2022-12-20T02:24:08;18.90;;;9.73;;
28724;SDS011;43472;48.980;9.646;2022-12-20T02:29:36;16.52;;;10.57;;
28724;SDS011;43472;48.980;9.646;2022-12-20T02:34:38;15.88;;;8.65;;
28724;SDS011;43472;48.980;9.646;2022-12-20T02:39:41;13.18;;;7.88;;
28724;SDS011;43472;48.980;9.646;2022-12-20T02:44:49;21.70;;;10.07;;
28724;SDS011;43472;48.980;9.646;2022-12-20T02:50:17;21.23;;;10.25;;
28724;SDS011;43472;48.980;9.646;2022-12-20T02:55:30;15.88;;;8.70;;
28724;SDS011;43472;48.980;9.646;2022-12-20T03:00:43;14.35;;;7.88;;
28724;SDS011;43472;48.980;9.646;2022-12-20T03:05:52;10.30;;;7.00;;
28724;SDS011;43472;48.980;9.646;2022-12-20T03:10:55;10.57;;;5.70;;
28724;SDS011;43472;48.980;9.646;2022-12-20T03:15:57;8.95;;;4.82;;
28724;SDS011;43472;48.980;9.646;2022-12-20T03:20:59;10.38;;;5.75;;
28724;SDS011;43472;48.980;9.646;2022-12-20T03:26:00;9.20;;;4.72;;
28724;SDS011;43472;48.980;9.646;2022-12-20T03:31:02;11.60;;;5.82;;
28724;SDS011;43472;48.980;9.646;2022-12-20T03:36:05;15.05;;;7.30;;
28724;SDS011;43472;48.980;9.646;2022-12-20T03:41:06;8.00;;;5.03;;
28724;SDS011;43472;48.980;9.646;2022-12-20T03:46:08;9.07;;;4.28;;
28724;SDS011;43472;48.980;9.646;2022-12-20T03:51:10;10.80;;;4.50;;
28724;SDS011;43472;48.980;9.646;2022-12-20T03:56:12;23.70;;;10.75;;
28724;SDS011;43472;48.980;9.646;2022-12-20T04:01:18;19.45;;;9.32;;
28724;SDS011;43472;48.980;9.646;2022-12-20T04:06:21;8.75;;;4.68;;
28724;SDS011;43472;48.980;9.646;2022-12-20T04:11:24;11.30;;;5.68;;
28724;SDS011;43472;48.980;9.646;2022-12-20T04:16:26;8.95;;;5.32;;
28724;SDS011;43472;48.980;9.646;2022-12-20T04:21:31;9.07;;;5.72;;
28724;SDS011;43472;48.980;9.646;2022-12-20T04:26:34;13.15;;;6.75;;
28724;SDS011;43472;48.980;9.646;2022-12-20T04:31:36;9.88;;;5.72;;
28724;SDS011;43472;48.980;9.646;2022-12-20T04:36:38;8.02;;;5.13;;
28724;SDS011;43472;48.980;9.646;2022-12-20T04:41:40;12.98;;;6.20;;
28724;SDS011;43472;48.980;9.646;2022-12-20T04:46:43;16.00;;;8.38;;
28724;SDS011;43472;48.980;9.646;2022-12-20T04:51:45;11.10;;;7.20;;
28724;SDS011;43472;48.980;9.646;2022-12-20T04:56:46;11.25;;;6.40;;
28724;SDS011;43472;48.980;9.646;2022-12-20T05:01:48;11.45;;;6.63;;
28724;SDS011;43472;48.980;9.646;2022-12-20T05:06:50;11.90;;;6.20;;
28724;SDS011;43472;48.980;9.646;2022-12-20T05:11:52;23.23;;;12.30;;
28724;SDS011;43472;48.980;9.646;2022-12-20T05:16:54;10.32;;;6.85;;
28724;SDS011;43472;48.980;9.646;2022-12-20T05:21:55;10.65;;;6.22;;
28724;SDS011;43472;48.980;9.646;2022-12-20T05:27:16;8.10;;;5.28;;
28724;SDS011;43472;48.980;9.646;2022-12-20T05:32:17;10.18;;;5.40;;
28724;SDS011;43472;48.980;9.646;2022-12-20T05:37:19;16.73;;;8.60;;
28724;SDS011;43472;48.980;9.646;2022-12-20T05:42:21;14.15;;;7.25;;
28724;SDS011;43472;48.980;9.646;2022-12-20T05:47:23;8.00;;;5.32;;
28724;SDS011;43472;48.980;9.646;2022-12-20T05:52:25;13.93;;;8.02;;
28724;SDS011;43472;48.980;9.646;2022-12-20T05:57:27;16.95;;;10.18;;
28724;SDS011;43472;48.980;9.646;2022-12-20T06:02:28;11.82;;;7.57;;
28724;SDS011;43472;48.980;9.646;2022-12-20T06:07:31;8.88;;;5.22;;
28724;SDS011;43472;48.980;9.646;2022-12-20T06:12:33;11.93;;;7.32;;
28724;SDS011;43472;48.980;9.646;2022-12-20T06:17:35;11.13;;;5.95;;
28724;SDS011;43472;48.980;9.646;2022-12-20T06:22:37;11.80;;;6.00;;
28724;SDS011;43472;48.980;9.646;2022-12-20T06:27:38;21.38;;;9.27;;
28724;SDS011;43472;48.980;9.646;2022-12-20T06:32:40;11.52;;;6.40;;
28724;SDS011;43472;48.980;9.646;2022-12-20T06:37:42;9.30;;;6.15;;
28724;SDS011;43472;48.980;9.646;2022-12-20T06:42:44;8.25;;;5.15;;
28724;SDS011;43472;48.980;9.646;2022-12-20T06:47:46;9.55;;;6.35;;
28724;SDS011;43472;48.980;9.646;2022-12-20T06:52:47;9.80;;;5.72;;
28724;SDS011;43472;48.980;9.646;2022-12-20T06:57:49;8.32;;;5.55;;
28724;SDS011;43472;48.980;9.646;2022-12-20T07:02:51;12.00;;;6.53;;
28724;SDS011;43472;48.980;9.646;2022-12-20T07:07:53;18.48;;;9.05;;
28724;SDS011;43472;48.980;9.646;2022-12-20T07:12:55;28.00;;;13.90;;
28724;SDS011;43472;48.980;9.646;2022-12-20T07:17:56;16.67;;;8.52;;
28724;SDS011;43472;48.980;9.646;2022-12-20T07:22:58;10.45;;;6.00;;
28724;SDS011;43472;48.980;9.646;2022-12-20T07:28:01;11.30;;;6.25;;
28724;SDS011;43472;48.980;9.646;2022-12-20T07:33:03;9.63;;;5.50;;
28724;SDS011;43472;48.980;9.646;2022-12-20T07:38:04;9.70;;;5.80;;
28724;SDS011;43472;48.980;9.646;2022-12-20T07:43:08;21.88;;;13.05;;
28724;SDS011;43472;48.980;9.646;2022-12-20T07:48:10;14.10;;;10.10;;
28724;SDS011;43472;48.980;9.646;2022-12-20T07:53:20;16.20;;;10.65;;
28724;SDS011;43472;48.980;9.646;2022-12-20T07:58:23;21.48;;;14.35;;
28724;SDS011;43472;48.980;9.646;2022-12-20T08:03:30;17.70;;;12.10;;
28724;SDS011;43472;48.980;9.646;2022-12-20T08:08:37;16.98;;;12.13;;
28724;SDS011;43472;48.980;9.646;2022-12-20T08:13:42;17.40;;;10.48;;
28724;SDS011;43472;48.980;9.646;2022-12-20T08:18:47;14.25;;;8.95;;
28724;SDS011;43472;48.980;9.646;2022-12-20T08:23:49;17.92;;;11.10;;
28724;SDS011;43472;48.980;9.646;2022-12-20T08:28:52;20.60;;;12.60;;
28724;SDS011;43472;48.980;9.646;2022-12-20T08:33:55;21.98;;;13.57;;
28724;SDS011;43472;48.980;9.646;2022-12-20T08:38:57;25.55;;;15.32;;
28724;SDS011;43472;48.980;9.646;2022-12-20T08:44:04;28.08;;;16.30;;
28724;SDS011;43472;48.980;9.646;2022-12-20T08:49:07;33.17;;;16.27;;
28724;SDS011;43472;48.980;9.646;2022-12-20T08:54:08;26.45;;;15.27;;
28724;SDS011;43472;48.980;9.646;2022-12-20T08:59:10;34.17;;;18.42;;
28724;SDS011;43472;48.980;9.646;2022-12-20T09:04:12;43.50;;;20.08;;
28724;SDS011;43472;48.980;9.646;2022-12-20T09:09:15;30.20;;;17.33;;
28724;SDS011;43472;48.980;9.646;2022-12-20T09:14:17;23.15;;;13.63;;
28724;SDS011;43472;48.980;9.646;2022-12-20T09:19:19;30.67;;;16.05;;
28724;SDS011;43472;48.980;9.646;2022-12-20T09:24:21;48.72;;;23.90;;
28724;SDS011;43472;48.980;9.646;2022-12-20T09:29:24;41.78;;;20.88;;
28724;SDS011;43472;48.980;9.646;2022-12-20T09:34:35;41.50;;;19.58;;
28724;SDS011;43472;48.980;9.646;2022-12-20T09:39:37;42.13;;;21.90;;
28724;SDS011;43472;48.980;9.646;2022-12-20T09:44:39;82.68;;;40.38;;
28724;SDS011;43472;48.980;9.646;2022-12-20T09:49:43;55.85;;;28.02;;
28724;SDS011;43472;48.980;9.646;2022-12-20T10:00:12;30.33;;;17.85;;
28724;SDS011;43472;48.980;9.646;2022-12-20T10:05:17;29.92;;;17.92;;
28724;SDS011;43472;48.980;9.646;2022-12-20T10:10:40;29.75;;;16.65;;
28724;SDS011;43472;48.980;9.646;2022-12-20T10:16:06;33.67;;;17.75;;
28724;SDS011;43472;48.980;9.646;2022-12-20T10:21:39;29.67;;;17.17;;
28724;SDS011;43472;48.980;9.646;2022-12-20T10:26:53;30.80;;;17.65;;
28724;SDS011;43472;48.980;9.646;2022-12-20T10:31:57;32.33;;;18.95;;
28724;SDS011;43472;48.980;9.646;2022-12-20T10:37:13;34.35;;;19.55;;
28724;SDS011;43472;48.980;9.646;2022-12-20T10:42:40;38.00;;;19.33;;
28724;SDS011;43472;48.980;9.646;2022-12-20T10:47:43;49.42;;;21.75;;
28724;SDS011;43472;48.980;9.646;2022-12-20T10:53:01;39.03;;;22.17;;
28724;SDS011;43472;48.980;9.646;2022-12-20T10:58:13;39.00;;;19.95;;
28724;SDS011;43472;48.980;9.646;2022-12-20T11:03:20;45.05;;;23.92;;
28724;SDS011;43472;48.980;9.646;2022-12-20T11:08:23;54.15;;;30.15;;
28724;SDS011;43472;48.980;9.646;2022-12-20T11:13:48;65.53;;;32.85;;
28724;SDS011;43472;48.980;9.646;2022-12-20T11:19:01;54.13;;;30.75;;
28724;SDS011;43472;48.980;9.646;2022-12-20T11:24:20;54.78;;;29.48;;
28724;SDS011;43472;48.980;9.646;2022-12-20T11:56:29;79.38;;;38.55;;
28724;SDS011;43472;48.980;9.646;2022-12-20T12:02:30;55.53;;;31.30;;
28724;SDS011;43472;48.980;9.646;2022-12-20T12:07:22;49.45;;;28.20;;
28724;SDS011;43472;48.980;9.646;2022-12-20T12:18:16;34.60;;;21.40;;
28724;SDS011;43472;48.980;9.646;2022-12-20T12:28:28;79.50;;;39.15;;
28724;SDS011;43472;48.980;9.646;2022-12-20T12:33:32;81.80;;;38.95;;
28724;SDS011;43472;48.980;9.646;2022-12-20T12:38:43;56.42;;;28.73;;
28724;SDS011;43472;48.980;9.646;2022-12-20T12:49:27;27.27;;;17.23;;
28724;SDS011;43472;48.980;9.646;2022-12-20T12:54:38;48.60;;;27.00;;
28724;SDS011;43472;48.980;9.646;2022-12-20T13:04:53;46.40;;;27.25;;
28724;SDS011;43472;48.980;9.646;2022-12-20T13:20:33;68.78;;;35.85;;
28724;SDS011;43472;48.980;9.646;2022-12-20T13:36:04;100.30;;;49.72;;
28724;SDS011;43472;48.980;9.646;2022-12-20T13:46:40;60.72;;;31.60;;
28724;SDS011;43472;48.980;9.646;2022-12-20T13:57:14;55.22;;;28.00;;
28724;SDS011;43472;48.980;9.646;2022-12-20T14:02:18;54.90;;;31.48;;
28724;SDS011;43472;48.980;9.646;2022-12-20T14:07:27;44.50;;;27.05;;
28724;SDS011;43472;48.980;9.646;2022-12-20T14:12:30;41.80;;;24.40;;
28724;SDS011;43472;48.980;9.646;2022-12-20T14:17:37;35.20;;;20.63;;
28724;SDS011;43472;48.980;9.646;2022-12-20T14:28:08;31.90;;;18.08;;
28724;SDS011;43472;48.980;9.646;2022-12-20T14:38:36;48.05;;;24.70;;
28724;SDS011;43472;48.980;9.646;2022-12-20T14:43:40;51.47;;;25.40;;
28724;SDS011;43472;48.980;9.646;2022-12-20T14:48:42;54.20;;;28.80;;
28724;SDS011;43472;48.980;9.646;2022-12-20T14:53:45;47.25;;;27.40;;
28724;SDS011;43472;48.980;9.646;2022-12-20T14:59:00;46.33;;;25.67;;
28724;SDS011;43472;48.980;9.646;2022-12-20T15:09:25;34.17;;;16.92;;
28724;SDS011;43472;48.980;9.646;2022-12-20T15:14:34;29.73;;;16.88;;
28724;SDS011;43472;48.980;9.646;2022-12-20T15:19:41;27.05;;;15.63;;
28724;SDS011;43472;48.980;9.646;2022-12-20T15:24:43;23.20;;;14.65;;
28724;SDS011;43472;48.980;9.646;2022-12-20T15:29:45;31.35;;;18.33;;
28724;SDS011;43472;48.980;9.646;2022-12-20T15:34:47;27.10;;;15.98;;
28724;SDS011;43472;48.980;9.646;2022-12-20T15:39:48;26.30;;;15.70;;
28724;SDS011;43472;48.980;9.646;2022-12-20T15:44:50;39.83;;;23.52;;
28724;SDS011;43472;48.980;9.646;2022-12-20T15:49:52;12.27;;;9.15;;
28724;SDS011;43472;48.980;9.646;2022-12-20T15:54:54;12.88;;;8.82;;
28724;SDS011;43472;48.980;9.646;2022-12-20T15:59:55;16.65;;;11.60;;
28724;SDS011;43472;48.980;9.646;2022-12-20T16:05:02;15.55;;;11.65;;
28724;SDS011;43472;48.980;9.646;2022-12-20T16:10:04;16.42;;;10.23;;
28724;SDS011;43472;48.980;9.646;2022-12-20T16:15:18;10.57;;;8.13;;
28724;SDS011;43472;48.980;9.646;2022-12-20T16:20:21;12.32;;;8.00;;
28724;SDS011;43472;48.980;9.646;2022-12-20T16:25:33;15.68;;;10.02;;
28724;SDS011;43472;48.980;9.646;2022-12-20T16:30:36;17.20;;;9.88;;
28724;SDS011;43472;48.980;9.646;2022-12-20T16:35:38;12.18;;;7.22;;
28724;SDS011;43472;48.980;9.646;2022-12-20T16:40:40;18.65;;;9.27;;
28724;SDS011;43472;48.980;9.646;2022-12-20T16:45:41;29.15;;;14.70;;
28724;SDS011;43472;48.980;9.646;2022-12-20T16:50:43;58.20;;;29.27;;
28724;SDS011;43472;48.980;9.646;2022-12-20T16:55:45;41.28;;;25.33;;
28724;SDS011;43472;48.980;9.646;2022-12-20T17:00:47;35.83;;;19.55;;
28724;SDS011;43472;48.980;9.646;2022-12-20T17:05:50;31.23;;;17.92;;
28724;SDS011;43472;48.980;9.646;2022-12-20T17:10:51;33.78;;;19.00;;
28724;SDS011;43472;48.980;9.646;2022-12-20T17:15:53;30.90;;;18.52;;
28724;SDS011;43472;48.980;9.646;2022-12-20T17:20:55;38.28;;;24.60;;
28724;SDS011;43472;48.980;9.646;2022-12-20T17:25:56;38.05;;;21.80;;
28724;SDS011;43472;48.980;9.646;2022-12-20T17:30:58;56.63;;;33.30;;
28724;SDS011;43472;48.980;9.646;2022-12-20T17:36:08;47.80;;;25.45;;
28724;SDS011;43472;48.980;9.646;2022-12-20T17:41:19;21.75;;;13.85;;
28724;SDS011;43472;48.980;9.646;2022-12-20T17:46:23;34.35;;;20.40;;
28724;SDS011;43472;48.980;9.646;2022-12-20T17:51:27;24.75;;;12.98;;
28724;SDS011;43472;48.980;9.646;2022-12-20T17:56:31;28.02;;;17.58;;
28724;SDS011;43472;48.980;9.646;2022-12-20T18:01:37;45.15;;;25.35;;
28724;SDS011;43472;48.980;9.646;2022-12-20T18:06:39;36.97;;;21.58;;
28724;SDS011;43472;48.980;9.646;2022-12-20T18:11:42;38.72;;;21.58;;
28724;SDS011;43472;48.980;9.646;2022-12-20T18:16:44;27.00;;;16.73;;
28724;SDS011;43472;48.980;9.646;2022-12-20T18:21:46;29.40;;;16.67;;
28724;SDS011;43472;48.980;9.646;2022-12-20T18:26:48;36.33;;;19.65;;
28724;SDS011;43472;48.980;9.646;2022-12-20T18:31:50;31.48;;;18.42;;
28724;SDS011;43472;48.980;9.646;2022-12-20T18:36:52;23.27;;;14.00;;
28724;SDS011;43472;48.980;9.646;2022-12-20T18:41:53;17.02;;;10.93;;
28724;SDS011;43472;48.980;9.646;2022-12-20T18:46:55;23.10;;;12.60;;
28724;SDS011;43472;48.980;9.646;2022-12-20T18:51:57;31.30;;;14.32;;
28724;SDS011;43472;48.980;9.646;2022-12-20T18:57:00;31.10;;;18.92;;
28724;SDS011;43472;48.980;9.646;2022-12-20T19:02:02;37.13;;;19.13;;
28724;SDS011;43472;48.980;9.646;2022-12-20T19:07:04;26.58;;;13.77;;
28724;SDS011;43472;48.980;9.646;2022-12-20T19:12:06;39.53;;;19.73;;
28724;SDS011;43472;48.980;9.646;2022-12-20T19:17:07;29.38;;;16.27;;
28724;SDS011;43472;48.980;9.646;2022-12-20T19:22:09;16.67;;;10.90;;
28724;SDS011;43472;48.980;9.646;2022-12-20T19:27:11;20.98;;;10.38;;
28724;SDS011;43472;48.980;9.646;2022-12-20T19:32:16;23.23;;;12.90;;
28724;SDS011;43472;48.980;9.646;2022-12-20T19:37:18;17.70;;;9.63;;
28724;SDS011;43472;48.980;9.646;2022-12-20T19:42:19;42.85;;;26.27;;
28724;SDS011;43472;48.980;9.646;2022-12-20T19:47:25;40.67;;;24.77;;
28724;SDS011;43472;48.980;9.646;2022-12-20T19:52:29;23.17;;;14.77;;
28724;SDS011;43472;48.980;9.646;2022-12-20T19:57:31;38.47;;;23.08;;
28724;SDS011;43472;48.980;9.646;2022-12-20T20:02:33;41.60;;;23.85;;
28724;SDS011;43472;48.980;9.646;2022-12-20T20:07:35;40.50;;;21.88;;
28724;SDS011;43472;48.980;9.646;2022-12-20T20:12:37;30.95;;;19.00;;
28724;SDS011;43472;48.980;9.646;2022-12-20T20:17:39;34.10;;;19.67;;
28724;SDS011;43472;48.980;9.646;2022-12-20T20:22:41;32.78;;;19.88;;
28724;SDS011;43472;48.980;9.646;2022-12-20T20:27:43;31.98;;;19.33;;
28724;SDS011;43472;48.980;9.646;2022-12-20T20:32:46;26.70;;;16.73;;
28724;SDS011;43472;48.980;9.646;2022-12-20T20:37:47;29.00;;;18.05;;
28724;SDS011;43472;48.980;9.646;2022-12-20T20:42:49;23.88;;;14.10;;
28724;SDS011;43472;48.980;9.646;2022-12-20T20:47:51;15.50;;;11.77;;
28724;SDS011;43472;48.980;9.646;2022-12-20T20:52:53;17.58;;;11.05;;
28724;SDS011;43472;48.980;9.646;2022-12-20T20:57:55;25.35;;;14.35;;
28724;SDS011;43472;48.980;9.646;2022-12-20T21:02:57;17.20;;;10.48;;
28724;SDS011;43472;48.980;9.646;2022-12-20T21:08:00;14.52;;;8.63;;
28724;SDS011;43472;48.980;9.646;2022-12-20T21:13:01;66.30;;;33.97;;
28724;SDS011;43472;48.980;9.646;2022-12-20T21:18:04;44.17;;;24.65;;
28724;SDS011;43472;48.980;9.646;2022-12-20T21:23:06;34.88;;;18.27;;
28724;SDS011;43472;48.980;9.646;2022-12-20T21:28:08;24.77;;;11.95;;
28724;SDS011;43472;48.980;9.646;2022-12-20T21:33:16;31.10;;;18.55;;
28724;SDS011;43472;48.980;9.646;2022-12-20T21:38:18;57.85;;;27.52;;
28724;SDS011;43472;48.980;9.646;2022-12-20T21:43:19;55.25;;;25.98;;
28724;SDS011;43472;48.980;9.646;2022-12-20T21:48:21;31.65;;;16.17;;
28724;SDS011;43472;48.980;9.646;2022-12-20T21:53:23;9.57;;;6.50;;
28724;SDS011;43472;48.980;9.646;2022-12-20T21:58:26;49.30;;;22.75;;
28724;SDS011;43472;48.980;9.646;2022-12-20T22:03:29;33.65;;;19.15;;
28724;SDS011;43472;48.980;9.646;2022-12-20T22:08:31;30.73;;;18.30;;
28724;SDS011;43472;48.980;9.646;2022-12-20T22:13:34;32.38;;;14.60;;
28724;SDS011;43472;48.980;9.646;2022-12-20T22:18:42;27.67;;;13.88;;
28724;SDS011;43472;48.980;9.646;2022-12-20T22:23:48;29.40;;;15.65;;
28724;SDS011;43472;48.980;9.646;2022-12-20T22:28:54;21.88;;;12.27;;
28724;SDS011;43472;48.980;9.646;2022-12-20T22:33:57;21.42;;;13.93;;
28724;SDS011;43472;48.980;9.646;2022-12-20T22:38:59;20.00;;;12.68;;
28724;SDS011;43472;48.980;9.646;2022-12-20T22:44:02;16.73;;;10.13;;
28724;SDS011;43472;48.980;9.646;2022-12-20T22:49:04;15.85;;;10.13;;
28724;SDS011;43472;48.980;9.646;2022-12-20T22:54:05;10.15;;;6.00;;
28724;SDS011;43472;48.980;9.646;2022-12-20T22:59:07;21.17;;;13.40;;
28724;SDS011;43472;48.980;9.646;2022-12-20T23:04:09;23.63;;;13.82;;
28724;SDS011;43472;48.980;9.646;2022-12-20T23:09:10;58.17;;;25.85;;
28724;SDS011;43472;48.980;9.646;2022-12-20T23:14:13;51.45;;;22.02;;
28724;SDS011;43472;48.980;9.646;2022-12-20T23:19:38;29.92;;;14.73;;
28724;SDS011;43472;48.980;9.646;2022-12-20T23:24:58;38.47;;;16.35;;
28724;SDS011;43472;48.980;9.646;2022-12-20T23:30:01;20.48;;;11.82;;
28724;SDS011;43472;48.980;9.646;2022-12-20T23:35:04;18.13;;;9.73;;
28724;SDS011;43472;48.980;9.646;2022-12-20T23:40:13;11.93;;;8.20;;
28724;SDS011;43472;48.980;9.646;2022-12-20T23:45:16;17.63;;;9.63;;
28724;SDS011;43472;48.980;9.646;2022-12-20T23:50:18;18.58;;;10.57;;
28724;SDS011;43472;48.980;9.646;2022-12-20T23:55:20;17.13;;;9.77;;
